Time;durP1;ratioP1;P1;durP2;ratioP2;P2;SDS_P1;SDS_P2;PMS_P1;PMS_P2;Temp;Humidity;BMP_temperature;BMP_pressure;BME280_temperature;BME280_humidity;BME280_pressure;Samples;Min_cycle;Max_cycle;Signal;HPM_P1;HPM_P2
2021/10/09 00:00:18;;;;;;;33.07;19.33;;;4.00;99.90;;;4.29;100.00;95799.00;2235648;56;26661;-56
2021/10/09 00:03:04;;;;;;;28.13;18.93;;;4.00;99.90;;;4.37;100.00;95797.00;2459527;55;26193;-55
2021/10/09 00:08:49;;;;;;;27.30;19.93;;;4.00;99.90;;;4.56;100.00;95789.00;2258198;55;33320;-55
2021/10/09 00:11:37;;;;;;;28.93;19.27;;;4.00;99.90;;;4.39;100.00;95802.00;2503554;54;26152;-56
2021/10/09 00:14:23;;;;;;;28.17;19.60;;;4.10;99.90;;;4.53;100.00;95807.00;2520373;55;26200;-55
2021/10/09 00:17:13;;;;;;;30.50;18.03;;;4.10;99.90;;;4.46;100.00;95804.00;2285504;55;26127;-55
2021/10/09 00:19:59;;;;;;;29.67;19.57;;;4.00;99.90;;;4.25;100.00;95803.00;2497791;54;26159;-56
2021/10/09 00:22:46;;;;;;;27.23;18.40;;;3.90;99.90;;;4.05;100.00;95798.00;2278438;55;26112;-55
2021/10/09 00:25:32;;;;;;;26.07;17.00;;;3.80;99.90;;;4.11;100.00;95804.00;2521103;55;26127;-55
2021/10/09 00:28:19;;;;;;;30.97;20.03;;;3.80;99.90;;;4.18;100.00;95794.00;2287367;55;26184;-56
2021/10/09 00:31:05;;;;;;;24.90;17.13;;;3.80;99.90;;;4.16;100.00;95803.00;2521261;55;26108;-56
2021/10/09 00:33:51;;;;;;;28.33;18.57;;;3.80;99.90;;;4.07;100.00;95799.00;2287082;54;26624;-55
2021/10/09 00:36:38;;;;;;;27.60;18.50;;;3.70;99.90;;;4.01;100.00;95797.00;2280281;54;26446;-56
2021/10/09 00:39:25;;;;;;;25.57;17.90;;;3.70;99.90;;;4.00;100.00;95798.00;2272603;55;26578;-55
2021/10/09 00:42:11;;;;;;;24.30;17.17;;;3.70;99.90;;;4.14;100.00;95795.00;2521349;54;26534;-56
2021/10/09 00:44:58;;;;;;;29.17;17.30;;;3.70;99.90;;;4.00;100.00;95800.00;2521866;54;26701;-56
2021/10/09 00:47:45;;;;;;;21.97;16.33;;;3.70;99.90;;;4.00;100.00;95796.00;2287963;56;26593;-56
2021/10/09 00:50:31;;;;;;;26.07;17.00;;;3.70;99.90;;;4.09;100.00;95802.00;2551946;54;26098;-56
2021/10/09 00:53:24;;;;;;;30.23;17.97;;;3.70;99.90;;;4.03;100.00;95800.00;2314306;54;26676;-55
2021/10/09 00:56:11;;;;;;;26.17;17.23;;;3.70;99.90;;;3.90;100.00;95803.00;2552642;54;26244;-56
2021/10/09 00:58:59;;;;;;;28.70;18.07;;;3.60;99.90;;;3.93;100.00;95797.00;2312486;54;26186;-56
2021/10/09 01:01:47;;;;;;;23.90;17.03;;;3.60;99.90;;;3.80;100.00;95799.00;2312632;55;26676;-55
2021/10/09 01:04:35;;;;;;;23.83;17.23;;;3.50;99.90;;;3.78;100.00;95799.00;2284137;55;26125;-56
2021/10/09 01:07:21;;;;;;;26.27;18.73;;;3.60;99.90;;;3.85;100.00;95792.00;2292518;55;26108;-56
2021/10/09 01:10:09;;;;;;;27.10;17.80;;;3.60;99.90;;;4.09;100.00;95798.00;2526825;55;26096;-56
2021/10/09 01:12:57;;;;;;;25.73;17.73;;;3.80;99.90;;;4.07;100.00;95809.00;2292186;55;26120;-56
2021/10/09 01:15:44;;;;;;;24.43;17.33;;;3.80;99.90;;;4.13;100.00;95801.00;2292517;55;26125;-56
2021/10/09 01:18:30;;;;;;;24.60;16.90;;;3.80;99.90;;;4.15;100.00;95804.00;2292307;56;26177;-56
2021/10/09 01:21:17;;;;;;;25.07;17.07;;;3.80;99.90;;;4.19;100.00;95799.00;2526223;55;26576;-56
2021/10/09 01:24:04;;;;;;;23.50;15.97;;;3.70;99.90;;;3.99;100.00;95798.00;2291340;55;26136;-56
2021/10/09 01:26:51;;;;;;;24.87;17.40;;;3.60;99.90;;;3.90;100.00;95797.00;2525855;55;26169;-56
2021/10/09 01:32:34;;;;;;;26.60;17.27;;;3.50;99.90;;;3.96;100.00;95784.00;2270289;56;33383;-56
2021/10/09 01:35:21;;;;;;;24.00;16.03;;;3.50;99.90;;;3.83;100.00;95796.00;2240864;55;26223;-56
2021/10/09 01:38:10;;;;;;;24.43;16.87;;;3.50;99.90;;;3.85;100.00;95800.00;2216893;56;26242;-56
2021/10/09 01:40:58;;;;;;;21.53;16.43;;;3.50;99.90;;;3.85;100.00;95807.00;2210948;56;26163;-56
2021/10/09 01:43:44;;;;;;;24.17;16.13;;;3.60;99.90;;;3.95;100.00;95806.00;2430356;55;26147;-55
2021/10/09 01:46:31;;;;;;;23.10;16.17;;;3.70;99.90;;;4.13;100.00;95799.00;2212183;55;26135;-55
2021/10/09 01:49:17;;;;;;;23.33;16.47;;;3.80;99.90;;;4.25;100.00;95805.00;2469919;55;26180;-58
2021/10/09 01:52:04;;;;;;;24.07;16.50;;;4.00;99.90;;;4.40;100.00;95804.00;2247280;54;26765;-56
2021/10/09 01:54:51;;;;;;;26.90;17.70;;;4.10;99.90;;;4.49;100.00;95801.00;2503255;54;26112;-55
2021/10/09 01:57:37;;;;;;;23.57;16.10;;;4.20;99.90;;;4.53;100.00;95802.00;2262020;56;26226;-56
2021/10/09 02:00:24;;;;;;;25.17;17.07;;;4.20;99.90;;;4.61;100.00;95804.00;2248446;56;26642;-55
2021/10/09 02:03:10;;;;;;;23.67;17.17;;;4.30;99.90;;;4.65;100.00;95796.00;2239442;55;26141;-55
2021/10/09 02:05:57;;;;;;;22.83;16.93;;;4.30;99.90;;;4.66;100.00;95792.00;2248627;55;26200;-56
2021/10/09 02:08:44;;;;;;;32.50;21.60;;;4.30;99.90;;;4.66;100.00;95779.00;2497737;55;26114;-56
2021/10/09 02:11:37;;;;;;;28.47;19.50;;;4.30;99.90;;;4.64;100.00;95791.00;2268345;56;26150;-56
2021/10/09 02:14:27;;;;;;;26.70;18.40;;;4.30;99.90;;;4.59;100.00;95791.00;2497961;55;26731;-56
2021/10/09 02:17:32;;;;;;;26.27;18.53;;;4.30;99.90;;;4.69;100.00;95797.00;2497785;55;26126;-56
2021/10/09 02:26:28;;;;;;;25.83;18.67;;;4.60;99.90;;;4.93;100.00;95788.00;2268287;56;26274;-58
2021/10/09 02:29:14;;;;;;;26.27;18.87;;;4.70;99.90;;;5.13;100.00;95788.00;2497658;55;26134;-58
2021/10/09 02:32:01;;;;;;;25.47;18.13;;;4.80;99.90;;;5.25;100.00;95780.00;2267327;56;26739;-56
2021/10/09 02:34:47;;;;;;;26.23;18.97;;;4.90;99.90;;;5.29;100.00;95783.00;2266943;56;26197;-56
2021/10/09 02:37:34;;;;;;;25.63;18.73;;;5.00;99.90;;;5.37;100.00;95792.00;2267365;56;26257;-57
2021/10/09 02:40:21;;;;;;;27.83;19.30;;;5.20;99.90;;;5.62;100.00;95780.00;2266209;56;26687;-56
2021/10/09 02:43:07;;;;;;;27.87;20.00;;;5.30;99.90;;;5.70;100.00;95780.00;2497083;55;26586;-57
2021/10/09 02:45:53;;;;;;;27.80;18.63;;;5.40;99.90;;;5.83;100.00;95786.00;2496923;55;26101;-57
2021/10/09 02:48:40;;;;;;;26.13;19.23;;;5.60;99.90;;;5.93;100.00;95777.00;2293235;56;26165;-56
2021/10/09 02:51:26;;;;;;;27.80;19.33;;;5.60;99.90;;;6.05;100.00;95781.00;2292862;56;26153;-57
2021/10/09 02:54:13;;;;;;;30.37;19.33;;;5.70;99.90;;;6.15;100.00;95777.00;2527779;55;26509;-57
2021/10/09 02:56:59;;;;;;;26.33;20.53;;;5.80;99.90;;;6.23;100.00;95774.00;2292791;56;26145;-56
2021/10/09 02:59:45;;;;;;;26.10;18.67;;;5.80;99.90;;;6.15;100.00;95773.00;2527993;55;26113;-57
2021/10/09 03:05:30;;;;;;;26.13;20.10;;;5.90;99.90;;;6.30;100.00;95756.00;2252118;54;33298;-55
2021/10/09 03:08:16;;;;;;;27.63;19.27;;;5.90;99.90;;;6.23;100.00;95778.00;2261976;55;26694;-57
2021/10/09 03:11:03;;;;;;;27.30;19.40;;;5.90;99.90;;;6.30;100.00;95779.00;2290000;54;26624;-57
2021/10/09 03:13:49;;;;;;;27.70;19.53;;;6.00;99.90;;;6.35;100.00;95788.00;2274227;55;26410;-55
2021/10/09 03:16:36;;;;;;;28.80;20.20;;;6.00;99.90;;;6.38;100.00;95772.00;2265465;56;26136;-56
2021/10/09 03:19:23;;;;;;;28.67;20.27;;;6.10;99.90;;;6.44;100.00;95771.00;2265340;56;26645;-56
2021/10/09 03:22:09;;;;;;;28.83;20.73;;;6.10;99.90;;;6.48;100.00;95778.00;2266622;56;26097;-58
2021/10/09 03:24:56;;;;;;;27.80;19.87;;;6.20;99.90;;;6.55;100.00;95776.00;2260691;55;26146;-57
2021/10/09 03:27:43;;;;;;;28.70;19.97;;;6.20;99.90;;;6.49;100.00;95770.00;2249635;55;26139;-56
2021/10/09 03:30:29;;;;;;;27.63;21.07;;;6.20;99.90;;;6.62;100.00;95769.00;2465004;55;26168;-56
2021/10/09 03:33:15;;;;;;;28.47;20.87;;;6.30;99.90;;;6.67;100.00;95767.00;2241127;55;26702;-56
2021/10/09 03:36:02;;;;;;;30.43;20.83;;;6.30;99.90;;;6.73;100.00;95775.00;2464824;55;26224;-56
2021/10/09 03:38:48;;;;;;;28.57;20.40;;;6.30;99.90;;;6.68;100.00;95772.00;2241030;56;26175;-56
2021/10/09 03:41:36;;;;;;;33.20;20.87;;;6.30;99.90;;;6.71;100.00;95779.00;2464972;54;26578;-56
2021/10/09 03:44:22;;;;;;;33.10;20.40;;;6.30;99.90;;;6.65;100.00;95780.00;2241145;56;26164;-56
2021/10/09 03:47:17;;;;;;;31.67;20.63;;;6.40;99.90;;;6.75;100.00;95779.00;2464641;55;26123;-57
2021/10/09 03:50:07;;;;;;;30.20;19.33;;;6.40;99.90;;;6.70;100.00;95785.00;2241304;56;26172;-56
2021/10/09 03:52:54;;;;;;;29.37;20.03;;;6.40;99.90;;;6.78;100.00;95780.00;2489345;55;26146;-56
2021/10/09 03:55:40;;;;;;;24.80;18.63;;;6.40;99.90;;;6.77;100.00;95786.00;2262198;56;26513;-56
2021/10/09 03:58:26;;;;;;;26.70;18.47;;;6.40;99.90;;;6.78;100.00;95791.00;2262039;56;26129;-56
2021/10/09 04:01:13;;;;;;;23.70;18.80;;;6.40;99.90;;;6.83;100.00;95781.00;2490505;55;26599;-56
2021/10/09 04:03:59;;;;;;;26.43;20.30;;;6.40;99.90;;;6.77;100.00;95781.00;2237458;56;26088;-56
2021/10/09 04:06:45;;;;;;;24.57;18.63;;;6.40;99.90;;;6.76;100.00;95788.00;2460324;56;26111;-56
2021/10/09 04:09:31;;;;;;;25.37;19.77;;;6.30;99.90;;;6.68;100.00;95785.00;2237285;57;26103;-56
2021/10/09 04:12:18;;;;;;;24.03;19.10;;;6.30;99.90;;;6.59;100.00;95786.00;2460027;56;26107;-56
2021/10/09 04:15:07;;;;;;;24.47;19.33;;;6.20;99.90;;;6.49;100.00;95787.00;2260909;55;26741;-56
2021/10/09 04:17:53;;;;;;;28.23;19.80;;;6.20;99.90;;;6.54;100.00;95780.00;2495182;55;26113;-57
2021/10/09 04:20:40;;;;;;;24.53;19.23;;;6.20;99.90;;;6.45;100.00;95783.00;2231993;56;26140;-56
2021/10/09 04:23:27;;;;;;;25.03;19.67;;;6.20;99.90;;;6.63;100.00;95787.00;2235139;57;26627;-55
2021/10/09 04:26:13;;;;;;;28.43;20.17;;;6.20;99.90;;;6.55;100.00;95786.00;2455183;56;26101;-56
2021/10/09 04:29:00;;;;;;;26.67;19.23;;;6.30;99.90;;;6.61;100.00;95791.00;2239874;57;26111;-56
2021/10/09 04:31:47;;;;;;;27.50;19.23;;;6.30;99.90;;;6.72;100.00;95781.00;2239493;56;26824;-56
2021/10/09 04:34:33;;;;;;;27.93;19.47;;;6.30;99.90;;;6.63;100.00;95785.00;2465087;55;26183;-56
2021/10/09 04:37:20;;;;;;;27.17;19.60;;;6.30;99.90;;;6.78;100.00;95778.00;2464726;55;26131;-55
2021/10/09 04:43:06;;;;;;;26.03;18.80;;;6.40;99.90;;;6.72;100.00;95763.00;2280881;54;32999;-56
2021/10/09 04:45:53;;;;;;;24.67;19.77;;;6.40;99.90;;;6.62;100.00;95786.00;2525601;54;26511;-57
2021/10/09 04:48:39;;;;;;;30.30;20.23;;;6.40;99.90;;;6.75;100.00;95783.00;2553166;54;26127;-57
2021/10/09 04:51:26;;;;;;;24.30;18.73;;;6.40;99.90;;;6.79;100.00;95790.00;2312790;54;26754;-57
2021/10/09 04:54:12;;;;;;;27.67;18.80;;;6.40;99.90;;;6.75;100.00;95791.00;2552897;54;26640;-56
2021/10/09 04:56:58;;;;;;;25.70;19.47;;;6.40;99.90;;;6.76;100.00;95783.00;2313649;54;26067;-56
2021/10/09 04:59:45;;;;;;;27.20;19.30;;;6.50;99.90;;;6.80;100.00;95780.00;2553484;54;26535;-57
2021/10/09 05:02:31;;;;;;;23.47;17.53;;;6.50;99.90;;;6.85;100.00;95786.00;2547897;54;26553;-56
2021/10/09 05:05:18;;;;;;;25.77;18.57;;;6.50;99.90;;;6.86;100.00;95793.00;2286083;56;26173;-57
2021/10/09 05:08:05;;;;;;;26.37;18.80;;;6.50;99.90;;;6.99;100.00;95789.00;2519495;55;26082;-59
2021/10/09 05:10:52;;;;;;;22.00;16.47;;;6.60;99.90;;;6.92;100.00;95782.00;2287776;56;26630;-56
2021/10/09 05:13:38;;;;;;;24.93;16.80;;;6.60;99.90;;;6.92;100.00;95790.00;2521432;55;26263;-57
2021/10/09 05:16:25;;;;;;;23.87;16.93;;;6.50;99.90;;;6.89;100.00;95785.00;2287482;56;26586;-56
2021/10/09 05:19:12;;;;;;;24.57;17.03;;;6.60;99.90;;;6.92;100.00;95788.00;2521309;55;26801;-56
2021/10/09 05:24:55;;;;;;;23.30;16.37;;;6.60;99.90;;;7.07;100.00;95767.00;2227712;56;33479;-56
2021/10/09 05:27:51;;;;;;;22.20;16.83;;;6.60;99.90;;;7.00;100.00;95787.00;2195543;57;26785;-57
2021/10/09 05:30:45;;;;;;;21.83;16.47;;;6.60;99.90;;;6.95;100.00;95798.00;2234721;56;26560;-57
2021/10/09 05:33:37;;;;;;;25.37;17.63;;;6.60;99.90;;;6.97;100.00;95796.00;2463695;56;26125;-56
2021/10/09 05:39:22;;;;;;;19.40;16.07;;;6.70;99.90;;;7.19;100.00;95780.00;2305682;53;33086;-57
2021/10/09 05:42:08;;;;;;;21.40;16.80;;;6.60;99.90;;;6.96;100.00;95805.00;2310063;54;26591;-56
2021/10/09 05:44:56;;;;;;;21.23;16.63;;;6.60;99.90;;;6.99;100.00;95812.00;2544063;54;26556;-56
2021/10/09 05:47:44;;;;;;;20.73;16.00;;;6.60;99.90;;;6.90;100.00;95817.00;2282608;54;26134;-56
2021/10/09 05:50:35;;;;;;;20.60;16.77;;;6.60;99.90;;;6.89;100.00;95811.00;2521537;53;26177;-56
2021/10/09 05:56:34;;;;;;;23.27;16.07;;;6.70;99.90;;;7.13;100.00;95816.00;2289321;54;26208;-57
2021/10/09 05:59:49;;;;;;;28.17;17.83;;;6.70;99.90;;;7.02;100.00;95816.00;2315202;53;26147;-56
2021/10/09 07:01:22;;;;;;;19.23;16.20;;;7.70;99.90;;;8.15;100.00;95814.00;2258985;56;26175;-56
2021/10/09 07:04:09;;;;;;;21.90;16.33;;;7.60;99.90;;;8.00;100.00;95826.00;2233622;56;26141;-58
2021/10/09 07:09:53;;;;;;;24.53;16.60;;;7.70;99.90;;;8.25;100.00;95823.00;2252027;56;33374;-58
2021/10/09 07:12:40;;;;;;;19.40;15.40;;;7.80;99.90;;;8.24;100.00;95831.00;2258775;56;26171;-57
2021/10/09 07:15:26;;;;;;;20.90;16.27;;;7.90;99.90;;;8.33;100.00;95828.00;2258498;56;26277;-56
2021/10/09 07:18:14;;;;;;;21.27;16.40;;;7.90;99.90;;;8.53;100.00;95839.00;2258739;56;26623;-57
2021/10/09 07:21:01;;;;;;;20.20;15.43;;;7.80;99.90;;;8.34;100.00;95835.00;2258663;56;26647;-56
2021/10/09 07:23:47;;;;;;;22.80;16.53;;;7.90;99.90;;;8.40;100.00;95839.00;2258836;56;26135;-57
2021/10/09 07:26:34;;;;;;;20.80;16.70;;;7.80;99.90;;;8.23;100.00;95837.00;2487867;55;26171;-57
2021/10/09 07:29:20;;;;;;;21.23;16.17;;;7.80;99.90;;;8.18;100.00;95840.00;2487916;55;26163;-57
2021/10/09 07:32:08;;;;;;;24.20;16.80;;;7.70;99.90;;;8.26;100.00;95840.00;2259779;56;26789;-56
2021/10/09 07:34:54;;;;;;;21.90;16.40;;;8.00;99.90;;;8.78;100.00;95848.00;2487100;55;26258;-57
2021/10/09 07:37:41;;;;;;;20.77;15.37;;;8.40;99.90;;;9.31;100.00;95844.00;2258877;56;26153;-56
2021/10/09 07:40:28;;;;;;;18.50;15.43;;;8.70;99.90;;;9.47;100.00;95839.00;2259930;56;26652;-58
2021/10/09 07:43:14;;;;;;;18.83;15.13;;;9.10;99.90;;;10.11;100.00;95831.00;2235387;56;26096;-57
2021/10/09 07:46:00;;;;;;;20.63;15.17;;;9.50;99.90;;;10.72;100.00;95833.00;2235074;55;26184;-58
2021/10/09 07:48:46;;;;;;;18.93;14.87;;;9.80;99.90;;;10.95;100.00;95842.00;2475093;55;26149;-56
2021/10/09 07:51:33;;;;;;;17.73;15.10;;;9.90;99.90;;;10.81;100.00;95842.00;2261104;56;26116;-57
2021/10/09 07:54:19;;;;;;;17.17;14.60;;;9.90;99.90;;;10.50;100.00;95845.00;2477900;55;26142;-58
2021/10/09 07:57:06;;;;;;;19.97;15.87;;;9.50;99.90;;;9.80;100.00;95847.00;2235476;56;26076;-57
2021/10/09 07:59:53;;;;;;;19.03;14.73;;;9.20;99.90;;;9.73;100.00;95854.00;2458262;56;26226;-57
2021/10/09 08:05:43;;;;;;;19.93;15.53;;;9.10;99.90;;;9.90;100.00;95853.00;2246913;55;33112;-56
2021/10/09 08:08:30;;;;;;;23.00;16.20;;;9.20;99.90;;;9.87;100.00;95864.00;2236756;56;26694;-58
2021/10/09 08:11:17;;;;;;;21.93;15.37;;;9.20;99.90;;;9.81;100.00;95860.00;2241248;55;27806;-57
2021/10/09 08:14:04;;;;;;;20.13;16.00;;;9.10;99.90;;;9.65;100.00;95863.00;2260815;55;26554;-57
2021/10/09 08:16:51;;;;;;;21.20;16.77;;;9.00;99.90;;;9.42;100.00;95857.00;2267193;55;26152;-57
2021/10/09 08:19:37;;;;;;;21.27;16.60;;;9.20;99.90;;;10.23;100.00;95853.00;2267252;55;26124;-57
2021/10/09 08:22:26;;;;;;;18.83;15.90;;;9.40;99.90;;;10.28;100.00;95850.00;2265702;55;26191;-56
2021/10/09 08:25:42;;;;;;;20.30;15.43;;;9.50;99.90;;;10.24;100.00;95862.00;2264897;55;26100;-56
2021/10/09 08:40:41;;;;;;;21.07;15.57;;;9.70;99.90;;;10.37;100.00;95873.00;2264850;56;26237;-57
2021/10/09 08:43:28;;;;;;;21.87;15.20;;;10.00;99.90;;;10.85;100.00;95872.00;2259656;55;26670;-57
2021/10/09 08:46:14;;;;;;;17.77;14.43;;;10.70;99.90;;;12.13;100.00;95864.00;2264660;55;26222;-57
2021/10/09 08:49:01;;;;;;;15.90;13.37;;;11.60;99.90;;;13.51;100.00;95862.00;2265027;55;26699;-56
2021/10/09 08:51:47;;;;;;;15.77;12.75;;;12.60;99.90;;;14.39;100.00;95874.00;2253242;55;26124;-60
2021/10/09 08:54:40;;;;;;;15.13;12.90;;;13.60;99.90;;;15.39;100.00;95867.00;2280221;55;26684;-56
2021/10/09 08:57:34;;;;;;;15.18;12.37;;;14.50;99.90;;;16.82;100.00;95861.00;2292012;55;26602;-57
2021/10/09 09:00:37;;;;;;;14.38;12.05;;;14.40;99.90;;;16.02;100.00;95858.00;2291139;55;26651;-56
2021/10/09 09:03:31;;;;;;;16.15;12.95;;;13.80;99.90;;;14.98;100.00;95859.00;2262830;55;26225;-56
2021/10/09 09:06:38;;;;;;;17.35;13.93;;;13.80;99.90;;;15.08;100.00;95870.00;2257649;55;26153;-57
2021/10/09 09:34:37;;;;;;;16.60;13.65;;;10.80;99.90;;;11.37;100.00;95863.00;2230695;55;26112;-56
2021/10/09 09:40:41;;;;;;;18.77;13.30;;;10.80;99.90;;;11.52;100.00;95872.00;2465463;55;26148;-58
2021/10/09 09:43:40;;;;;;;16.70;13.27;;;11.00;99.90;;;11.64;100.00;95871.00;2455066;55;26622;-57
2021/10/09 09:46:27;;;;;;;15.97;13.10;;;10.60;99.90;;;11.14;100.00;95876.00;2231803;56;26103;-57
2021/10/09 09:49:14;;;;;;;17.13;13.77;;;10.60;99.90;;;11.21;100.00;95881.00;2451323;55;26155;-56
2021/10/09 09:52:01;;;;;;;15.73;13.03;;;10.60;99.90;;;11.21;100.00;95887.00;2234513;56;26172;-56
2021/10/09 09:54:48;;;;;;;17.70;12.43;;;10.30;99.90;;;10.80;100.00;95866.00;2456928;55;26734;-57
2021/10/09 09:57:36;;;;;;;15.97;13.13;;;10.20;99.90;;;10.66;100.00;95886.00;2230061;56;26645;-56
2021/10/09 10:00:22;;;;;;;15.60;12.30;;;10.30;99.90;;;10.79;100.00;95868.00;2453527;55;26254;-55
2021/10/09 10:03:11;;;;;;;15.23;11.67;;;11.10;99.90;;;12.46;100.00;95873.00;2230788;56;26147;-57
2021/10/09 10:05:58;;;;;;;14.10;11.23;;;12.70;99.90;;;15.21;100.00;95863.00;2228202;56;26997;-56
2021/10/09 10:08:44;;;;;;;16.30;12.18;;;13.60;99.90;;;16.05;100.00;95869.00;2235055;56;26133;-57
2021/10/09 10:11:31;;;;;;;16.02;11.57;;;14.80;99.90;;;17.61;100.00;95881.00;2456609;55;26670;-57
2021/10/09 10:14:19;;;;;;;13.70;11.63;;;16.10;99.90;;;19.44;100.00;95870.00;2230170;56;26205;-57
2021/10/09 10:17:05;;;;;;;13.02;11.48;;;15.40;99.90;;;17.03;100.00;95868.00;2454536;55;26597;-57
2021/10/09 10:23:00;;;;;;;13.25;11.82;;;16.20;99.90;;;16.13;100.00;95866.00;2246922;54;33808;-56
2021/10/09 10:25:47;;;;;;;14.93;11.65;;;13.90;99.90;;;14.43;100.00;95877.00;2254117;54;26673;-56
2021/10/09 10:28:33;;;;;;;16.70;11.52;;;13.00;99.90;;;13.38;100.00;95870.00;2244460;56;26114;-57
2021/10/09 10:31:21;;;;;;;17.87;11.90;;;12.80;99.90;;;13.44;100.00;95880.00;2247995;56;26247;-56
2021/10/09 10:34:26;;;;;;;16.08;12.37;;;12.60;99.90;;;13.46;100.00;95875.00;2490897;55;26153;-57
2021/10/09 10:37:35;;;;;;;15.48;12.32;;;12.30;99.90;;;13.16;100.00;95873.00;2490947;55;26097;-56
2021/10/09 10:40:45;;;;;;;18.92;12.88;;;12.10;99.90;;;13.02;100.00;95874.00;2249401;56;26118;-56
2021/10/09 10:43:44;;;;;;;18.60;12.43;;;12.00;99.90;;;13.00;100.00;95870.00;2267414;55;26155;-56
2021/10/09 10:46:44;;;;;;;15.95;11.10;;;12.70;99.90;;;14.26;100.00;95862.00;2500678;55;26581;-56
2021/10/09 10:49:48;;;;;;;14.57;11.07;;;13.10;99.90;;;14.62;100.00;95863.00;2521647;55;26606;-55
2021/10/09 10:56:10;;;;;;;16.75;11.15;;;14.00;99.90;;;16.11;100.00;95857.00;2245217;56;33240;-56
2021/10/09 10:59:29;;;;;;;15.13;11.63;;;14.10;99.90;;;15.87;100.00;95860.00;2252669;56;26627;-57
2021/10/09 11:02:17;;;;;;;14.10;10.50;;;13.40;99.90;;;14.58;100.00;95860.00;2240321;56;26121;-56
2021/10/09 11:05:09;;;;;;;14.40;11.10;;;13.40;99.90;;;14.81;100.00;95862.00;2440817;55;26632;-57
2021/10/09 11:07:56;;;;;;;14.82;11.55;;;14.10;99.90;;;16.71;100.00;95859.00;2220246;56;26752;-58
2021/10/09 11:13:49;;;;;;;15.57;12.30;;;16.20;99.90;;;19.20;100.00;95850.00;2252325;54;33376;-57
2021/10/09 11:16:36;;;;;;;14.98;12.60;;;14.90;99.90;;;16.42;100.00;95863.00;2266309;56;26166;-57
2021/10/09 11:19:42;;;;;;;13.57;12.00;;;14.10;99.90;;;14.99;100.00;95868.00;2259482;56;26186;-57
2021/10/09 11:25:38;;;;;;;17.30;12.02;;;13.40;99.90;;;14.23;100.00;95877.00;2240985;55;34107;-57
2021/10/09 11:28:30;;;;;;;14.35;11.35;;;13.60;99.90;;;15.44;100.00;95862.00;2235777;56;26635;-60
2021/10/09 11:34:20;;;;;;;12.95;10.98;;;14.70;99.90;;;16.60;100.00;95862.00;2259600;54;33133;-58
2021/10/09 11:37:12;;;;;;;15.93;10.25;;;14.10;99.90;;;16.30;100.00;95862.00;2213807;56;26145;-58
2021/10/09 11:40:01;;;;;;;12.30;10.13;;;13.70;99.90;;;15.11;100.00;95859.00;2235529;56;26174;-58
2021/10/09 11:42:54;;;;;;;14.40;10.20;;;13.90;99.90;;;15.82;100.00;95858.00;2460045;55;26202;-58
2021/10/09 11:45:47;;;;;;;14.75;10.68;;;14.30;99.90;;;16.19;100.00;95854.00;2237561;56;26107;-58
2021/10/09 11:54:54;;;;;;;16.00;10.43;;;17.30;99.90;;;20.35;98.26;95847.00;2460260;55;26159;-57
2021/10/09 11:57:40;;;;;;;11.68;10.15;;;17.70;99.90;;;20.45;95.75;95844.00;2237239;56;26757;-57
2021/10/09 12:00:40;;;;;;;13.80;10.50;;;17.70;99.90;;;19.71;89.89;95845.00;2460001;55;26284;-60
2021/10/09 12:03:36;;;;;;;13.65;10.38;;;17.40;99.90;;;19.14;99.11;95839.00;2459876;55;26107;-57
2021/10/09 12:06:40;;;;;;;11.90;9.98;;;16.90;99.90;;;18.39;100.00;95846.00;2237077;56;26146;-57
2021/10/09 12:09:38;;;;;;;14.98;10.38;;;16.80;99.90;;;18.16;100.00;95842.00;2236933;56;26166;-57
2021/10/09 12:12:31;;;;;;;12.65;9.93;;;16.70;99.90;;;18.17;100.00;95847.00;2236929;56;26162;-58
2021/10/09 12:15:25;;;;;;;15.02;10.82;;;16.20;99.90;;;17.16;100.00;95840.00;2459751;55;26159;-58
2021/10/09 12:18:12;;;;;;;12.18;9.27;;;15.60;99.90;;;16.49;100.00;95835.00;2235872;56;26214;-58
2021/10/09 12:24:16;;;;;;;9.55;8.55;;;14.50;99.90;;;15.45;100.00;95839.00;2246221;56;33320;-57
2021/10/09 12:27:06;;;;;;;11.88;8.75;;;14.90;99.90;;;15.89;100.00;95838.00;2247188;56;26147;-57
2021/10/09 12:32:58;;;;;;;12.77;9.00;;;14.90;99.90;;;15.38;100.00;95837.00;2215310;55;33899;-57
2021/10/09 12:35:45;;;;;;;12.35;8.38;;;14.30;99.90;;;14.88;100.00;95837.00;2212245;57;26176;-57
2021/10/09 12:38:40;;;;;;;11.35;8.88;;;13.90;99.90;;;14.14;100.00;95850.00;2209112;56;26107;-58
2021/10/09 12:41:26;;;;;;;10.95;8.40;;;13.50;99.90;;;13.86;100.00;95832.00;2425728;57;26160;-56
2021/10/09 12:44:12;;;;;;;10.50;8.07;;;13.20;99.90;;;13.49;100.00;95827.00;2210868;58;26120;-58
2021/10/09 12:46:59;;;;;;;12.48;8.85;;;13.40;99.90;;;13.81;100.00;95827.00;2210560;57;26183;-57
2021/10/09 12:49:45;;;;;;;10.00;7.87;;;13.50;99.90;;;13.69;100.00;95831.00;2428169;57;26114;-57
2021/10/09 12:52:31;;;;;;;12.93;7.90;;;13.20;99.90;;;13.33;100.00;95825.00;2210768;57;26184;-57
2021/10/09 12:55:18;;;;;;;11.23;8.77;;;13.20;99.90;;;13.41;100.00;95822.00;2427746;56;26154;-57
2021/10/09 12:58:08;;;;;;;10.65;8.32;;;13.20;99.90;;;13.29;100.00;95831.00;2210577;58;26144;-57
2021/10/09 13:00:54;;;;;;;10.55;7.35;;;13.20;99.90;;;13.41;100.00;95823.00;2428282;56;27427;-57
2021/10/09 13:03:40;;;;;;;13.45;8.50;;;13.40;99.90;;;13.73;100.00;95818.00;2210474;58;26185;-58
2021/10/09 13:06:27;;;;;;;11.25;8.45;;;13.60;99.90;;;13.71;100.00;95816.00;2428500;57;26642;-57
2021/10/09 13:09:15;;;;;;;10.90;8.50;;;13.50;99.90;;;13.72;100.00;95824.00;2210684;57;26141;-57
2021/10/09 13:12:02;;;;;;;11.80;8.95;;;13.60;99.90;;;13.81;100.00;95827.00;2427733;57;26244;-58
2021/10/09 13:14:48;;;;;;;10.43;8.55;;;13.20;99.90;;;13.35;100.00;95822.00;2219148;56;26112;-57
2021/10/09 13:17:36;;;;;;;11.52;8.23;;;12.80;99.90;;;12.93;100.00;95824.00;2207617;58;26769;-58
2021/10/09 13:20:25;;;;;;;10.68;8.10;;;12.70;99.90;;;13.08;100.00;95831.00;2426711;56;26173;-57
2021/10/09 13:23:11;;;;;;;9.60;7.70;;;12.70;99.90;;;13.08;100.00;95831.00;2211455;57;26701;-61
2021/10/09 13:25:58;;;;;;;10.43;7.62;;;12.80;99.90;;;13.05;100.00;95823.00;2429074;56;26083;-56
2021/10/09 13:28:44;;;;;;;11.85;8.25;;;12.80;99.90;;;13.22;100.00;95817.00;2210162;57;26235;-57
2021/10/09 13:31:31;;;;;;;12.63;8.00;;;13.20;99.90;;;13.55;100.00;95815.00;2210038;57;26148;-58
2021/10/09 13:34:18;;;;;;;11.55;8.50;;;13.40;99.90;;;13.82;100.00;95818.00;2216646;56;26181;-56
2021/10/09 13:37:05;;;;;;;11.00;9.00;;;13.40;99.90;;;13.64;100.00;95817.00;2428956;56;26148;-58
2021/10/09 13:42:49;;;;;;;12.50;8.77;;;13.40;99.90;;;13.94;100.00;95806.00;2200713;56;34067;-56
2021/10/09 13:45:35;;;;;;;15.82;9.25;;;13.40;99.90;;;13.69;100.00;95812.00;2419193;57;26214;-58
2021/10/09 13:48:22;;;;;;;13.02;8.98;;;13.10;99.90;;;13.24;100.00;95815.00;2437535;56;26173;-58
2021/10/09 13:54:06;;;;;;;12.15;8.75;;;12.40;99.90;;;12.55;100.00;95811.00;2201242;56;33993;-58
2021/10/09 13:56:52;;;;;;;11.00;8.10;;;12.10;99.90;;;12.30;100.00;95808.00;2389986;57;26164;-58
2021/10/09 13:59:38;;;;;;;15.48;9.77;;;12.30;99.90;;;12.69;100.00;95807.00;2433979;57;26257;-57
2021/10/09 14:02:25;;;;;;;11.52;8.95;;;12.30;99.90;;;12.57;100.00;95812.00;2215452;58;26104;-56
2021/10/09 14:05:11;;;;;;;11.10;9.25;;;12.40;99.90;;;12.72;100.00;95810.00;2435293;56;26642;-57
2021/10/09 14:07:57;;;;;;;13.00;8.75;;;12.50;99.90;;;12.94;100.00;95814.00;2191828;58;26122;-57
2021/10/09 14:10:43;;;;;;;11.77;9.35;;;12.50;99.90;;;12.84;100.00;95811.00;2191044;57;26239;-57
2021/10/09 14:13:30;;;;;;;13.20;8.63;;;12.50;99.90;;;12.79;100.00;95811.00;2399348;57;26177;-56
2021/10/09 14:16:17;;;;;;;11.35;9.20;;;12.40;99.90;;;12.77;100.00;95816.00;2185400;57;26611;-58
2021/10/09 14:19:03;;;;;;;14.10;9.25;;;12.40;99.90;;;12.76;100.00;95819.00;2456555;56;26198;-57
2021/10/09 14:21:50;;;;;;;12.80;9.20;;;12.40;99.90;;;12.69;100.00;95813.00;2236250;57;26223;-57